createdAt,value
2019-03-08T00:02:41.868Z,8.70
2019-03-08T00:07:47.064Z,8.70
2019-03-08T00:12:52.122Z,8.70
2019-03-08T00:17:58.811Z,8.70
2019-03-08T00:23:05.074Z,8.70
2019-03-08T00:28:10.173Z,8.70
2019-03-08T00:33:15.374Z,8.60
2019-03-08T00:38:20.412Z,8.60
2019-03-08T00:43:25.310Z,8.70
2019-03-08T00:48:30.394Z,8.70
2019-03-08T00:53:35.311Z,8.80
2019-03-08T00:58:40.339Z,8.80
2019-03-08T01:03:45.286Z,8.80
2019-03-08T01:08:50.309Z,8.90
2019-03-08T01:13:55.338Z,8.90
2019-03-08T01:19:01.287Z,8.90
2019-03-08T01:24:06.326Z,8.90
2019-03-08T01:29:11.560Z,8.90
2019-03-08T01:34:16.221Z,8.90
2019-03-08T01:39:20.576Z,8.90
2019-03-08T01:44:25.315Z,8.80
2019-03-08T01:49:30.360Z,8.80
2019-03-08T01:54:35.337Z,8.70
2019-03-08T01:59:50.665Z,8.70
2019-03-08T02:04:55.543Z,8.70
2019-03-08T02:10:00.536Z,8.70
2019-03-08T02:15:06.082Z,8.60
2019-03-08T02:20:14.885Z,8.50
2019-03-08T02:25:20.018Z,8.60
2019-03-08T02:30:25.060Z,8.50
2019-03-08T02:35:30.022Z,8.50
2019-03-08T02:40:36.167Z,8.30
2019-03-08T02:45:41.556Z,8.30
2019-03-08T02:50:46.392Z,8.20
2019-03-08T02:55:50.853Z,8.20
2019-03-08T03:00:54.290Z,8.10
2019-03-08T03:05:58.218Z,8.10
2019-03-08T03:11:02.298Z,8.10
2019-03-08T03:16:16.325Z,8.10
2019-03-08T03:21:20.466Z,8.00
2019-03-08T03:26:24.669Z,7.90
2019-03-08T03:31:28.666Z,7.90
2019-03-08T03:36:32.900Z,8.00
2019-03-08T03:41:36.283Z,8.00
2019-03-08T03:46:40.226Z,8.00
2019-03-08T03:51:44.569Z,8.00
2019-03-08T03:56:48.764Z,8.00
2019-03-08T04:01:52.844Z,8.00
2019-03-08T04:06:57.079Z,7.90
2019-03-08T04:12:01.073Z,7.90
2019-03-08T04:17:05.226Z,7.70
2019-03-08T04:22:09.373Z,7.90
2019-03-08T04:27:13.774Z,7.80
2019-03-08T04:32:18.705Z,7.90
2019-03-08T04:37:23.710Z,7.80
2019-03-08T04:42:28.684Z,7.90
2019-03-08T04:47:33.422Z,7.80
2019-03-08T04:52:38.606Z,7.80
2019-03-08T04:57:43.599Z,7.90
2019-03-08T05:02:49.129Z,7.90
2019-03-08T05:07:54.240Z,7.90
2019-03-08T05:12:59.381Z,8.00
2019-03-08T05:18:05.048Z,7.90
2019-03-08T05:23:10.679Z,8.00
2019-03-08T05:28:15.669Z,7.90
2019-03-08T05:33:20.750Z,8.00
2019-03-08T05:38:26.672Z,8.00
2019-03-08T05:43:31.691Z,8.00
2019-03-08T05:48:37.114Z,8.00
2019-03-08T05:53:42.188Z,8.00
2019-03-08T05:58:46.627Z,7.90
2019-03-08T06:03:52.411Z,8.00
2019-03-08T06:08:57.886Z,8.00
2019-03-08T06:14:02.962Z,8.00
2019-03-08T06:19:09.062Z,8.00
2019-03-08T06:24:13.982Z,8.10
2019-03-08T06:29:19.040Z,8.10
2019-03-08T06:34:24.582Z,8.10
2019-03-08T06:39:29.349Z,8.00
2019-03-08T06:44:34.373Z,8.00
2019-03-08T06:49:39.993Z,8.10
2019-03-08T06:54:46.628Z,8.10
2019-03-08T07:00:09.936Z,8.20
2019-03-08T07:05:15.053Z,8.30
2019-03-08T07:10:20.736Z,8.40
2019-03-08T07:15:26.860Z,8.40
2019-03-08T07:20:41.562Z,8.50
2019-03-08T07:26:01.108Z,8.50
2019-03-08T07:31:25.808Z,8.50
2019-03-08T07:36:58.144Z,8.40
2019-03-08T07:42:26.627Z,8.60
2019-03-08T07:47:39.943Z,8.70
2019-03-08T07:53:18.447Z,8.70
2019-03-08T07:58:51.850Z,8.70
2019-03-08T08:04:17.471Z,8.70
2019-03-08T08:09:54.141Z,8.70
2019-03-08T08:15:17.716Z,8.80
2019-03-08T08:20:41.890Z,8.90
2019-03-08T08:26:06.898Z,8.90
2019-03-08T08:31:29.696Z,9.00
2019-03-08T08:36:49.706Z,9.00
2019-03-08T08:42:24.989Z,9.10
2019-03-08T08:47:50.261Z,9.20
2019-03-08T08:53:08.861Z,9.20
2019-03-08T08:58:41.325Z,9.40
2019-03-08T09:04:04.343Z,9.40
2019-03-08T09:09:35.872Z,9.40
2019-03-08T09:14:47.506Z,9.40
2019-03-08T09:20:14.201Z,9.40
2019-03-08T09:25:37.501Z,9.30
2019-03-08T09:30:58.785Z,9.40
2019-03-08T09:36:33.851Z,9.40
2019-03-08T09:42:05.664Z,9.30
2019-03-08T09:47:16.626Z,9.20
2019-03-08T09:52:40.831Z,9.10
2019-03-08T09:58:02.069Z,9.00
2019-03-08T10:03:40.577Z,8.90
2019-03-08T10:09:21.157Z,8.90
2019-03-08T10:14:50.205Z,8.80
2019-03-08T10:20:15.278Z,8.70
2019-03-08T10:25:41.340Z,8.50
2019-03-08T10:31:18.371Z,8.50
2019-03-08T10:36:32.269Z,8.60
2019-03-08T10:42:02.335Z,8.40
2019-03-08T10:47:24.749Z,8.50
2019-03-08T10:53:02.685Z,8.70
2019-03-08T10:58:31.917Z,8.70
2019-03-08T11:04:00.250Z,8.80
2019-03-08T11:09:27.655Z,8.90
2019-03-08T11:14:52.489Z,8.80
2019-03-08T11:20:15.289Z,9.00
2019-03-08T11:25:49.944Z,8.90
2019-03-08T11:31:20.900Z,8.90
2019-03-08T11:36:44.332Z,8.90
2019-03-08T11:42:11.900Z,8.80
2019-03-08T11:47:36.453Z,8.60
2019-03-08T11:53:01.909Z,8.50
2019-03-08T11:58:30.531Z,8.60
2019-03-08T12:03:49.143Z,8.70
2019-03-08T12:09:29.366Z,9.00
2019-03-08T12:14:55.822Z,9.20
2019-03-08T12:20:19.028Z,9.30
2019-03-08T12:25:43.425Z,9.30
2019-03-08T12:31:07.074Z,9.70
2019-03-08T12:36:36.283Z,9.90
2019-03-08T12:42:04.359Z,10.00
2019-03-08T12:47:30.886Z,10.20
2019-03-08T12:52:56.907Z,10.40
2019-03-08T12:58:37.435Z,10.30
2019-03-08T13:03:59.296Z,10.30
2019-03-08T13:09:31.015Z,10.10
2019-03-08T13:14:36.991Z,9.80
2019-03-08T13:19:41.856Z,9.70
2019-03-08T13:24:46.932Z,9.60
2019-03-08T13:29:52.537Z,9.70
2019-03-08T13:34:57.825Z,9.70
2019-03-08T13:40:02.713Z,9.70
2019-03-08T13:45:10.476Z,9.80
2019-03-08T13:50:15.768Z,9.90
2019-03-08T13:55:21.393Z,9.80
2019-03-08T14:00:28.074Z,9.80
2019-03-08T14:05:33.179Z,9.90
2019-03-08T14:10:38.160Z,10.00
2019-03-08T14:15:41.746Z,10.40
2019-03-08T14:20:45.294Z,10.70
2019-03-08T14:25:48.930Z,10.90
2019-03-08T14:31:18.489Z,10.90
2019-03-08T14:36:22.691Z,11.10
2019-03-08T14:41:43.057Z,11.20
2019-03-08T14:47:11.403Z,11.30
2019-03-08T14:52:16.001Z,11.20
2019-03-08T14:57:27.244Z,11.30
2019-03-08T15:02:28.434Z,11.50
2019-03-08T15:07:33.601Z,11.60
2019-03-08T15:12:48.302Z,11.40
2019-03-08T15:17:43.918Z,11.20
2019-03-08T15:22:49.612Z,11.30
2019-03-08T15:27:54.857Z,11.40
2019-03-08T15:33:01.200Z,11.40
2019-03-08T15:38:07.206Z,11.60
2019-03-08T15:43:13.581Z,11.80
2019-03-08T15:48:19.622Z,11.90
2019-03-08T15:53:24.689Z,11.70
2019-03-08T15:58:29.882Z,11.50
2019-03-08T16:03:36.364Z,11.30
2019-03-08T16:08:41.494Z,11.20
2019-03-08T16:13:46.956Z,11.30
2019-03-08T16:18:52.010Z,11.20
2019-03-08T16:23:57.131Z,11.10
2019-03-08T16:29:02.626Z,11.00
2019-03-08T16:34:09.489Z,11.00
2019-03-08T16:39:37.080Z,11.00
2019-03-08T16:45:05.818Z,10.70
2019-03-08T16:50:31.068Z,10.60
2019-03-08T16:55:51.995Z,10.50
2019-03-08T17:01:16.745Z,10.50
2019-03-08T17:06:33.083Z,10.40
2019-03-08T17:11:57.299Z,10.30
2019-03-08T17:17:26.052Z,10.10
2019-03-08T17:22:58.261Z,9.90
2019-03-08T17:28:23.715Z,9.80
2019-03-08T17:33:45.961Z,9.70
2019-03-08T17:39:10.324Z,9.80
2019-03-08T17:44:35.199Z,9.70
2019-03-08T17:50:15.998Z,9.80
2019-03-08T17:55:36.148Z,9.60
2019-03-08T18:00:49.065Z,9.50
2019-03-08T18:06:18.406Z,9.40
2019-03-08T18:11:54.415Z,9.30
2019-03-08T18:17:17.633Z,9.20
2019-03-08T18:22:43.541Z,9.20
2019-03-08T18:28:07.177Z,9.10
2019-03-08T18:33:35.768Z,9.00
2019-03-08T18:38:58.427Z,8.90
2019-03-08T18:44:23.400Z,8.70
2019-03-08T18:49:53.464Z,8.80
2019-03-08T18:55:23.919Z,8.80
2019-03-08T19:00:47.344Z,8.80
2019-03-08T19:06:08.188Z,8.80
2019-03-08T19:11:24.351Z,8.80
2019-03-08T19:16:48.428Z,8.80
2019-03-08T19:22:16.221Z,8.90
2019-03-08T19:27:46.823Z,8.90
2019-03-08T19:33:02.508Z,8.80
2019-03-08T19:38:31.003Z,8.90
2019-03-08T19:43:53.826Z,8.90
2019-03-08T19:49:17.312Z,8.90
2019-03-08T19:54:51.291Z,8.90
2019-03-08T20:00:14.646Z,8.90
2019-03-08T20:05:28.588Z,9.00
2019-03-08T20:11:02.771Z,9.00
2019-03-08T20:16:46.374Z,9.00
2019-03-08T20:22:09.407Z,9.00
2019-03-08T20:27:31.949Z,9.00
2019-03-08T20:33:11.025Z,9.00
2019-03-08T20:38:35.272Z,9.00
2019-03-08T20:43:56.413Z,9.00
2019-03-08T20:49:02.287Z,9.00
2019-03-08T20:54:08.251Z,8.90
2019-03-08T20:59:13.589Z,8.90
2019-03-08T21:04:18.752Z,8.90
2019-03-08T21:09:24.367Z,8.90
2019-03-08T21:14:29.136Z,8.90
2019-03-08T21:19:34.017Z,8.90
2019-03-08T21:24:38.948Z,8.90
2019-03-08T21:29:43.921Z,8.90
2019-03-08T21:34:48.936Z,9.00
2019-03-08T21:39:53.765Z,8.90
2019-03-08T21:44:59.165Z,8.90
2019-03-08T21:50:05.175Z,9.00
2019-03-08T21:55:13.385Z,8.90
2019-03-08T22:00:20.272Z,8.90
2019-03-08T22:05:29.985Z,9.00
2019-03-08T22:10:47.647Z,9.00
2019-03-08T22:15:51.709Z,9.00
2019-03-08T22:20:56.649Z,9.00
2019-03-08T22:26:00.693Z,8.90
2019-03-08T22:31:06.171Z,8.90
2019-03-08T22:36:10.250Z,8.90
2019-03-08T22:41:13.785Z,8.80
2019-03-08T22:46:18.466Z,8.80
2019-03-08T22:51:21.963Z,8.70
2019-03-08T22:56:38.963Z,8.70
2019-03-08T23:01:51.270Z,8.70
2019-03-08T23:06:56.479Z,8.60
2019-03-08T23:12:01.703Z,8.60
2019-03-08T23:17:06.783Z,8.70
2019-03-08T23:22:11.880Z,8.70
2019-03-08T23:27:34.361Z,8.60
2019-03-08T23:32:44.212Z,8.70
2019-03-08T23:37:49.239Z,8.60
2019-03-08T23:42:55.495Z,8.50
2019-03-08T23:48:00.673Z,8.60
2019-03-08T23:53:06.480Z,8.50
2019-03-08T23:58:12.851Z,8.40
